Elda A — WDH6629 — position and weather

sailwx.info

Track history (hours):
 
Tides and Currents Weather Stations Pressure Air Temp Water Temp Dewpoint Dewpoint Depression Visibility Wind Speed Wind Dir Waves Ship Positions

Elda A

Owner: REC Marine Logistics, Galliano, LA. More information available from US FCC via Universal Licensing System and Coast Guard Vessel Documentation Center.

Last reported at 2018-Jan-28 16:40 UTC. Time now 2018-Feb-19 08:01 UTC.
Position N 29°33' W 090°28'.
Warning: this ship's position is 21 days out of date.

Length 14 m.

Type: Tug. MMSI: 367639990.

Date/timePositionNaut miles runAvg speedWind from/ knotsBaromVisibWave heightAir tempDewpointWater temp
2018-Jan-28 16:40N 29°33' W 090°28'1 7.8
2018-Jan-28 16:30N 29°34' W 090°30'3 6.7
2018-Jan-28 16:00N 29°34' W 090°33'2 0.2
2018-Jan-28 03:03N 29°35' W 090°36'0 0.6
2018-Jan-28 02:59N 29°35' W 090°36'0 1.0
2018-Jan-28 02:30N 29°35' W 090°36'3 5.5
2018-Jan-28 01:58N 29°34' W 090°32'3 6.9
2018-Jan-28 01:30N 29°34' W 090°29'2 0.1
2018-Jan-27 02:52N 29°34' W 090°31'3 7.9
2018-Jan-27 02:30N 29°34' W 090°34'3 7.0
2018-Jan-27 02:00N 29°35' W 090°38'4 7.8
2018-Jan-27 01:30N 29°37' W 090°42'3 5.5
2018-Jan-27 01:00N 29°34' W 090°43'3 5.7
2018-Jan-27 00:30N 29°32' W 090°46'4 8.1
2018-Jan-27 00:00N 29°32' W 090°50'6 0.3
2018-Jan-26 00:56N 29°34' W 090°57'12 6.7
2018-Jan-25 23:10N 29°34' W 090°43'0 0.0
2018-Jan-25 23:00N 29°34' W 090°43'0 0.0
2018-Jan-25 22:30N 29°34' W 090°43'0 0.0
2018-Jan-25 22:01N 29°34' W 090°43'0 0.0
2018-Jan-25 21:29N 29°34' W 090°43'0 0.0
2018-Jan-25 21:01N 29°34' W 090°43'0 0.0
2018-Jan-25 20:31N 29°34' W 090°43'0 0.0
2018-Jan-25 20:00N 29°34' W 090°43'0 0.0
2018-Jan-25 19:30N 29°34' W 090°43'0 0.0
2018-Jan-25 19:01N 29°34' W 090°43'0 0.0
2018-Jan-25 18:31N 29°34' W 090°43'0 0.0
2018-Jan-25 18:00N 29°34' W 090°43'0 0.0
2018-Jan-25 17:30N 29°34' W 090°43'0 0.0
2018-Jan-25 17:01N 29°34' W 090°43'0 0.0
2018-Jan-25 16:30N 29°34' W 090°43'0 0.0
2018-Jan-25 16:00N 29°34' W 090°43'0 0.0
2018-Jan-25 15:30N 29°34' W 090°43'0 0.0
2018-Jan-25 15:00N 29°34' W 090°43'0 0.0
2018-Jan-25 14:29N 29°34' W 090°43'0 0.0
2018-Jan-25 14:01N 29°34' W 090°43'0 0.0
2018-Jan-25 13:31N 29°34' W 090°43'0 0.0
2018-Jan-25 13:01N 29°34' W 090°43'0 0.0
2018-Jan-25 12:31N 29°34' W 090°43'0 0.0
2018-Jan-25 12:01N 29°34' W 090°43'0 0.0
2018-Jan-25 11:30N 29°34' W 090°43'0 0.0
2018-Jan-25 11:00N 29°34' W 090°43'0 0.0
2018-Jan-25 10:31N 29°34' W 090°43'0 0.0
2018-Jan-25 10:01N 29°34' W 090°43'0 0.0
2018-Jan-25 09:31N 29°34' W 090°43'0 0.0
2018-Jan-25 09:01N 29°34' W 090°43'0 0.0
2018-Jan-25 08:31N 29°34' W 090°43'0 0.0
2018-Jan-25 08:00N 29°34' W 090°43'0 0.0
2018-Jan-25 07:30N 29°34' W 090°43'0 0.0
2018-Jan-25 07:01N 29°34' W 090°43'0 0.0
2018-Jan-25 06:31N 29°34' W 090°43'0 0.0
2018-Jan-25 06:00N 29°34' W 090°43'0 0.0
2018-Jan-25 05:30N 29°34' W 090°43'0 0.0
2018-Jan-25 05:00N 29°34' W 090°43'0 0.0
2018-Jan-25 04:30N 29°34' W 090°43'0 0.0
2018-Jan-25 04:00N 29°34' W 090°43'0 0.0
2018-Jan-25 03:31N 29°34' W 090°43'1 1.1
2018-Jan-25 03:00N 29°34' W 090°44'3 6.0
2018-Jan-25 02:30N 29°32' W 090°46'4 8.5
2018-Jan-25 02:00N 29°32' W 090°51'4 8.7
2018-Jan-25 01:30N 29°34' W 090°56'  
2018-Jan-18 22:49N 29°32' W 090°46'2 7.3
2018-Jan-18 22:30N 29°34' W 090°45'3 5.1
2018-Jan-18 21:59N 29°36' W 090°43'2 3.4
2018-Jan-18 21:30N 29°36' W 090°41'4 7.4
2018-Jan-18 21:00N 29°35' W 090°37'  
Track history (hours):
 
Tides and Currents Weather Stations Pressure Air Temp Water Temp Dewpoint Dewpoint Depression Visibility Wind Speed Wind Dir Waves Ship Positions

Elda A

Owner: REC Marine Logistics, Galliano, LA. More information available from US FCC via Universal Licensing System and Coast Guard Vessel Documentation Center.

Last reported at 2018-Jan-28 16:40 UTC. Time now 2018-Feb-19 08:01 UTC.
Position N 29°33' W 090°28'.
Warning: this ship's position is 21 days out of date.

Length 14 m.

Type: Tug. MMSI: 367639990.

Date/timePositionNaut miles runAvg speedWind from/ knotsBaromVisibWave heightAir tempDewpointWater temp
2018-Jan-28 16:40N 29°33' W 090°28'1 7.8
2018-Jan-28 16:30N 29°34' W 090°30'3 6.7
2018-Jan-28 16:00N 29°34' W 090°33'2 0.2
2018-Jan-28 03:03N 29°35' W 090°36'0 0.6
2018-Jan-28 02:59N 29°35' W 090°36'0 1.0
2018-Jan-28 02:30N 29°35' W 090°36'3 5.5
2018-Jan-28 01:58N 29°34' W 090°32'3 6.9
2018-Jan-28 01:30N 29°34' W 090°29'2 0.1
2018-Jan-27 02:52N 29°34' W 090°31'3 7.9
2018-Jan-27 02:30N 29°34' W 090°34'3 7.0
2018-Jan-27 02:00N 29°35' W 090°38'4 7.8
2018-Jan-27 01:30N 29°37' W 090°42'3 5.5
2018-Jan-27 01:00N 29°34' W 090°43'3 5.7
2018-Jan-27 00:30N 29°32' W 090°46'4 8.1
2018-Jan-27 00:00N 29°32' W 090°50'6 0.3
2018-Jan-26 00:56N 29°34' W 090°57'12 6.7
2018-Jan-25 23:10N 29°34' W 090°43'0 0.0
2018-Jan-25 23:00N 29°34' W 090°43'0 0.0
2018-Jan-25 22:30N 29°34' W 090°43'0 0.0
2018-Jan-25 22:01N 29°34' W 090°43'0 0.0
2018-Jan-25 21:29N 29°34' W 090°43'0 0.0
2018-Jan-25 21:01N 29°34' W 090°43'0 0.0
2018-Jan-25 20:31N 29°34' W 090°43'0 0.0
2018-Jan-25 20:00N 29°34' W 090°43'0 0.0
2018-Jan-25 19:30N 29°34' W 090°43'0 0.0
2018-Jan-25 19:01N 29°34' W 090°43'0 0.0
2018-Jan-25 18:31N 29°34' W 090°43'0 0.0
2018-Jan-25 18:00N 29°34' W 090°43'0 0.0
2018-Jan-25 17:30N 29°34' W 090°43'0 0.0
2018-Jan-25 17:01N 29°34' W 090°43'0 0.0
2018-Jan-25 16:30N 29°34' W 090°43'0 0.0
2018-Jan-25 16:00N 29°34' W 090°43'0 0.0
2018-Jan-25 15:30N 29°34' W 090°43'0 0.0
2018-Jan-25 15:00N 29°34' W 090°43'0 0.0
2018-Jan-25 14:29N 29°34' W 090°43'0 0.0
2018-Jan-25 14:01N 29°34' W 090°43'0 0.0
2018-Jan-25 13:31N 29°34' W 090°43'0 0.0
2018-Jan-25 13:01N 29°34' W 090°43'0 0.0
2018-Jan-25 12:31N 29°34' W 090°43'0 0.0
2018-Jan-25 12:01N 29°34' W 090°43'0 0.0
2018-Jan-25 11:30N 29°34' W 090°43'0 0.0
2018-Jan-25 11:00N 29°34' W 090°43'0 0.0
2018-Jan-25 10:31N 29°34' W 090°43'0 0.0
2018-Jan-25 10:01N 29°34' W 090°43'0 0.0
2018-Jan-25 09:31N 29°34' W 090°43'0 0.0
2018-Jan-25 09:01N 29°34' W 090°43'0 0.0
2018-Jan-25 08:31N 29°34' W 090°43'0 0.0
2018-Jan-25 08:00N 29°34' W 090°43'0 0.0
2018-Jan-25 07:30N 29°34' W 090°43'0 0.0
2018-Jan-25 07:01N 29°34' W 090°43'0 0.0
2018-Jan-25 06:31N 29°34' W 090°43'0 0.0
2018-Jan-25 06:00N 29°34' W 090°43'0 0.0
2018-Jan-25 05:30N 29°34' W 090°43'0 0.0
2018-Jan-25 05:00N 29°34' W 090°43'0 0.0
2018-Jan-25 04:30N 29°34' W 090°43'0 0.0
2018-Jan-25 04:00N 29°34' W 090°43'0 0.0
2018-Jan-25 03:31N 29°34' W 090°43'1 1.1
2018-Jan-25 03:00N 29°34' W 090°44'3 6.0
2018-Jan-25 02:30N 29°32' W 090°46'4 8.5
2018-Jan-25 02:00N 29°32' W 090°51'4 8.7
2018-Jan-25 01:30N 29°34' W 090°56'  
2018-Jan-18 22:49N 29°32' W 090°46'2 7.3
2018-Jan-18 22:30N 29°34' W 090°45'3 5.1
2018-Jan-18 21:59N 29°36' W 090°43'2 3.4
2018-Jan-18 21:30N 29°36' W 090°41'4 7.4
2018-Jan-18 21:00N 29°35' W 090°37'  

Dump ship's entire track history